Gng Concord3 — VRNG4 — position and weather

sailwx.info

Track history (hours):
 
Tides and Currents Weather Stations Pressure Air Temp Water Temp Dewpoint Dewpoint Depression Visibility Wind Speed Wind Dir Waves Ship Positions

Gng Concord3

Last reported at 2017-Nov-09 17:24 UTC. Time now 2017-Nov-23 11:04 UTC.
Position N 17°08' W 061°00'.
Warning: this ship's position is 13 days out of date.

Length 225 m; draft 12 m.

Type: Cargo ship. MMSI: 477712200.

Date/timePositionNaut miles runAvg speedWind from/ knotsBaromVisibWave heightAir tempDewpointWater temp
2017-Nov-09 17:24N 17°08' W 061°00'511.4
2017-Nov-09 17:00N 17°05' W 061°04'611.3
2017-Nov-09 16:30N 17°02' W 061°09'511.1
2017-Nov-09 16:00N 16°60' W 061°14'511.0
2017-Nov-09 15:31N 16°57' W 061°19'611.1
2017-Nov-09 15:01N 16°54' W 061°24'611.1
2017-Nov-09 14:31N 16°51' W 061°29'611.0
2017-Nov-09 14:01N 16°49' W 061°34'611.2
2017-Nov-09 13:31N 16°46' W 061°39'611.5
2017-Nov-09 13:01N 16°44' W 061°45'611.3
2017-Nov-09 12:31N 16°42' W 061°50'611.5
2017-Nov-09 12:01N 16°39' W 061°56'611.7
2017-Nov-09 11:31N 16°37' W 062°01'611.6
2017-Nov-09 11:01N 16°35' W 062°07'611.8
2017-Nov-09 10:31N 16°33' W 062°13'611.6
2017-Nov-09 10:01N 16°30' W 062°18'611.4
2017-Nov-09 09:31N 16°28' W 062°24'611.5
2017-Nov-09 09:00N 16°26' W 062°29'611.6
2017-Nov-09 08:31N 16°24' W 062°35'  
2017-Nov-04 14:39N 16°21' W 062°42'214.0
2017-Nov-04 14:29N 16°22' W 062°39'714.1
2017-Nov-04 14:00N 16°24' W 062°33'714.0
2017-Nov-04 13:30N 16°27' W 062°26'713.9
2017-Nov-04 13:01N 16°30' W 062°20'713.8
2017-Nov-04 12:30N 16°33' W 062°13'714.2
2017-Nov-04 12:00N 16°35' W 062°06'714.4
2017-Nov-04 11:30N 16°38' W 061°59'714.5
2017-Nov-04 11:00N 16°41' W 061°52'714.3
2017-Nov-04 10:30N 16°44' W 061°45'714.1
2017-Nov-04 10:00N 16°47' W 061°39'713.9
2017-Nov-04 09:30N 16°49' W 061°32'713.6
2017-Nov-04 09:00N 16°53' W 061°26'713.4
2017-Nov-04 08:30N 16°57' W 061°20'713.3
2017-Nov-04 08:00N 17°00' W 061°14'713.1
2017-Nov-04 07:30N 17°04' W 061°09'713.5
2017-Nov-04 07:00N 17°08' W 061°03'713.5
2017-Nov-04 06:30N 17°12' W 060°57'  
Track history (hours):
 
Tides and Currents Weather Stations Pressure Air Temp Water Temp Dewpoint Dewpoint Depression Visibility Wind Speed Wind Dir Waves Ship Positions

Gng Concord3

Last reported at 2017-Nov-09 17:24 UTC. Time now 2017-Nov-23 11:04 UTC.
Position N 17°08' W 061°00'.
Warning: this ship's position is 13 days out of date.

Length 225 m; draft 12 m.

Type: Cargo ship. MMSI: 477712200.

Date/timePositionNaut miles runAvg speedWind from/ knotsBaromVisibWave heightAir tempDewpointWater temp
2017-Nov-09 17:24N 17°08' W 061°00'511.4
2017-Nov-09 17:00N 17°05' W 061°04'611.3
2017-Nov-09 16:30N 17°02' W 061°09'511.1
2017-Nov-09 16:00N 16°60' W 061°14'511.0
2017-Nov-09 15:31N 16°57' W 061°19'611.1
2017-Nov-09 15:01N 16°54' W 061°24'611.1
2017-Nov-09 14:31N 16°51' W 061°29'611.0
2017-Nov-09 14:01N 16°49' W 061°34'611.2
2017-Nov-09 13:31N 16°46' W 061°39'611.5
2017-Nov-09 13:01N 16°44' W 061°45'611.3
2017-Nov-09 12:31N 16°42' W 061°50'611.5
2017-Nov-09 12:01N 16°39' W 061°56'611.7
2017-Nov-09 11:31N 16°37' W 062°01'611.6
2017-Nov-09 11:01N 16°35' W 062°07'611.8
2017-Nov-09 10:31N 16°33' W 062°13'611.6
2017-Nov-09 10:01N 16°30' W 062°18'611.4
2017-Nov-09 09:31N 16°28' W 062°24'611.5
2017-Nov-09 09:00N 16°26' W 062°29'611.6
2017-Nov-09 08:31N 16°24' W 062°35'  
2017-Nov-04 14:39N 16°21' W 062°42'214.0
2017-Nov-04 14:29N 16°22' W 062°39'714.1
2017-Nov-04 14:00N 16°24' W 062°33'714.0
2017-Nov-04 13:30N 16°27' W 062°26'713.9
2017-Nov-04 13:01N 16°30' W 062°20'713.8
2017-Nov-04 12:30N 16°33' W 062°13'714.2
2017-Nov-04 12:00N 16°35' W 062°06'714.4
2017-Nov-04 11:30N 16°38' W 061°59'714.5
2017-Nov-04 11:00N 16°41' W 061°52'714.3
2017-Nov-04 10:30N 16°44' W 061°45'714.1
2017-Nov-04 10:00N 16°47' W 061°39'713.9
2017-Nov-04 09:30N 16°49' W 061°32'713.6
2017-Nov-04 09:00N 16°53' W 061°26'713.4
2017-Nov-04 08:30N 16°57' W 061°20'713.3
2017-Nov-04 08:00N 17°00' W 061°14'713.1
2017-Nov-04 07:30N 17°04' W 061°09'713.5
2017-Nov-04 07:00N 17°08' W 061°03'713.5
2017-Nov-04 06:30N 17°12' W 060°57'  

Dump ship's entire track history